Time;durP1;ratioP1;P1;durP2;ratioP2;P2;SDS_P1;SDS_P2;PMS_P1;PMS_P2;Temp;Humidity;BMP_temperature;BMP_pressure;BME280_temperature;BME280_humidity;BME280_pressure;Samples;Min_cycle;Max_cycle;Signal;HPM_P1;HPM_P2
2023/01/26 00:01:44;;;;;;;6.53;5.97;;;;;;;-0.19;100.00;99267.56;4138402;28;20265;-47
2023/01/26 00:03:46;;;;;;;5.20;4.80;;;;;;;-0.12;100.00;99264.88;4150043;28;20260;-47
2023/01/26 00:05:48;;;;;;;5.47;4.93;;;;;;;-0.15;100.00;99263.53;4151539;28;20224;-47
2023/01/26 00:07:50;;;;;;;6.73;6.00;;;;;;;-0.13;100.00;99262.38;4116139;28;20210;-48
2023/01/26 00:09:52;;;;;;;6.07;5.47;;;;;;;-0.06;100.00;99250.78;4138685;28;20292;-49
2023/01/26 00:11:53;;;;;;;5.28;4.38;;;;;;;-0.13;100.00;99241.69;4133784;28;20272;-47
2023/01/26 00:13:59;;;;;;;6.03;5.45;;;;;;;-0.09;100.00;99236.81;4139275;28;20261;-48
2023/01/26 00:16:02;;;;;;;6.30;5.50;;;;;;;-0.16;100.00;99241.19;4136631;28;20213;-47
2023/01/26 00:18:03;;;;;;;5.72;5.22;;;;;;;-0.13;100.00;99241.69;4135811;28;20213;-47
2023/01/26 00:20:05;;;;;;;5.40;4.88;;;;;;;-0.14;100.00;99238.34;4137820;28;20660;-47
2023/01/26 00:22:07;;;;;;;7.50;6.53;;;;;;;-0.13;100.00;99240.00;4137480;28;20201;-47
2023/01/26 00:24:09;;;;;;;5.38;4.97;;;;;;;-0.08;100.00;99229.59;4136808;28;20292;-47
2023/01/26 00:26:14;;;;;;;6.70;6.10;;;;;;;-0.13;100.00;99225.56;4135526;28;20241;-47
2023/01/26 00:28:16;;;;;;;6.53;5.32;;;;;;;-0.09;100.00;99222.56;4137702;28;20297;-47
2023/01/26 00:30:18;;;;;;;5.85;5.25;;;;;;;-0.06;100.00;99225.75;4138578;28;20202;-47
2023/01/26 00:32:20;;;;;;;4.65;4.20;;;;;;;-0.01;100.00;99229.63;4135715;28;20221;-47
2023/01/26 00:34:22;;;;;;;5.95;5.40;;;;;;;-0.17;100.00;99227.88;4134709;28;20252;-47
2023/01/26 00:36:23;;;;;;;5.63;4.97;;;;;;;-0.15;100.00;99229.41;4134853;28;20332;-47
2023/01/26 00:38:25;;;;;;;6.78;6.07;;;;;;;-0.15;100.00;99231.28;4139817;28;20240;-47
2023/01/26 00:40:27;;;;;;;6.72;6.03;;;;;;;-0.13;100.00;99223.88;4138231;28;20320;-48
2023/01/26 00:42:28;;;;;;;6.18;5.68;;;;;;;-0.12;100.00;99229.91;4138624;28;20300;-47
2023/01/26 00:44:30;;;;;;;9.00;8.10;;;;;;;-0.03;100.00;99212.81;4122312;28;20260;-47
2023/01/26 00:46:32;;;;;;;13.25;8.40;;;;;;;-0.08;100.00;99212.47;4135807;28;20241;-47
2023/01/26 00:48:34;;;;;;;12.98;7.60;;;;;;;0.01;100.00;99208.75;4134762;28;20253;-47
2023/01/26 00:50:35;;;;;;;9.90;8.90;;;;;;;-0.06;100.00;99210.44;4135450;28;20320;-47
2023/01/26 00:52:37;;;;;;;11.52;8.35;;;;;;;-0.12;100.00;99211.09;4131573;28;20767;-47
2023/01/26 00:54:39;;;;;;;8.00;7.13;;;;;;;-0.06;100.00;99209.63;4136413;28;20236;-47
2023/01/26 00:56:41;;;;;;;7.97;5.60;;;;;;;-0.07;100.00;99208.75;4121012;28;20233;-47
2023/01/26 00:58:44;;;;;;;7.93;7.30;;;;;;;-0.17;100.00;99211.75;4138449;28;20234;-47
2023/01/26 01:00:46;;;;;;;11.00;6.50;;;;;;;-0.20;100.00;99210.25;4135929;28;20241;-47
2023/01/26 01:02:47;;;;;;;9.82;8.88;;;;;;;-0.22;100.00;99214.13;4142652;28;20228;-48
2023/01/26 01:04:49;;;;;;;12.80;8.55;;;;;;;-0.14;100.00;99217.66;4148385;28;20260;-47
2023/01/26 01:06:51;;;;;;;10.68;8.80;;;;;;;-0.23;100.00;99207.91;4137663;28;20710;-47
2023/01/26 01:08:52;;;;;;;15.43;9.27;;;;;;;-0.21;100.00;99213.13;4138839;28;20292;-47
2023/01/26 01:11:05;;;;;;;9.30;8.30;;;;;;;-0.15;100.00;99215.16;4136287;28;20339;-48
2023/01/26 01:13:07;;;;;;;8.55;7.75;;;;;;;-0.16;100.00;99218.84;4137576;28;20358;-47
2023/01/26 01:15:09;;;;;;;13.47;7.47;;;;;;;-0.14;100.00;99216.81;4137332;28;20727;-47
2023/01/26 01:17:11;;;;;;;7.68;6.88;;;;;;;-0.05;100.00;99212.13;4138721;28;20213;-47
2023/01/26 01:19:14;;;;;;;6.38;5.75;;;;;;;-0.16;100.00;99218.84;4142198;28;20208;-47
2023/01/26 01:21:16;;;;;;;7.10;6.38;;;;;;;-0.13;100.00;99209.41;4136300;28;20232;-47
2023/01/26 01:23:18;;;;;;;6.75;6.05;;;;;;;-0.12;100.00;99215.66;4137871;28;20397;-47
2023/01/26 01:25:20;;;;;;;7.53;6.05;;;;;;;-0.13;100.00;99219.34;4135921;28;20240;-49
2023/01/26 01:27:21;;;;;;;5.75;5.25;;;;;;;-0.16;100.00;99213.47;4134666;28;20397;-47
2023/01/26 01:29:23;;;;;;;6.78;5.82;;;;;;;-0.14;100.00;99216.81;4134712;28;20255;-47
2023/01/26 01:31:25;;;;;;;6.70;5.50;;;;;;;-0.09;100.00;99214.47;4135971;28;20660;-47
2023/01/26 01:33:27;;;;;;;5.75;5.03;;;;;;;-0.13;100.00;99225.56;4136662;28;20225;-48
2023/01/26 01:35:29;;;;;;;5.63;5.05;;;;;;;-0.14;100.00;99217.66;4135325;28;20299;-47
2023/01/26 01:37:32;;;;;;;4.88;4.47;;;;;;;-0.12;100.00;99221.03;4136178;28;20736;-47
2023/01/26 01:39:40;;;;;;;5.45;4.95;;;;;;;-0.12;100.00;99216.47;4135671;28;20906;-47
2023/01/26 01:41:41;;;;;;;5.75;4.82;;;;;;;-0.10;100.00;99219.00;4121943;28;20256;-47
2023/01/26 01:43:43;;;;;;;7.13;6.43;;;;;;;-0.17;100.00;99212.63;4134141;28;20990;-47
2023/01/26 01:45:52;;;;;;;5.40;5.00;;;;;;;-0.13;100.00;99214.78;4136735;28;20292;-47
2023/01/26 01:47:56;;;;;;;5.23;4.33;;;;;;;-0.16;100.00;99213.47;4136915;28;20204;-47
2023/01/26 01:49:57;;;;;;;5.37;4.87;;;;;;;-0.27;100.00;99221.84;4135147;28;20205;-47
2023/01/26 01:52:25;;;;;;;4.97;4.47;;;;;;;-0.13;100.00;99220.19;4136339;28;20247;-47
2023/01/26 01:54:50;;;;;;;6.10;5.50;;;;;;;-0.17;100.00;99222.50;4132787;28;20205;-47
2023/01/26 01:56:54;;;;;;;7.65;5.97;;;;;;;-0.22;100.00;99220.31;4128707;28;20205;-47
2023/01/26 01:58:58;;;;;;;6.03;5.43;;;;;;;-0.24;100.00;99221.50;4149942;28;20266;-47
2023/01/26 02:01:00;;;;;;;6.05;4.72;;;;;;;-0.15;100.00;99220.53;4133249;28;20323;-47
2023/01/26 02:03:09;;;;;;;7.05;6.05;;;;;;;-0.19;100.00;99221.84;4133421;28;20272;-47
2023/01/26 02:05:32;;;;;;;6.10;5.28;;;;;;;-0.27;100.00;99217.28;4136661;28;20228;-47
2023/01/26 02:07:35;;;;;;;6.00;5.43;;;;;;;-0.24;100.00;99216.97;4139021;28;20241;-47
2023/01/26 02:12:01;;;;;;;6.18;5.50;;;;;;;-0.27;100.00;99211.91;4137000;28;20688;-47
2023/01/26 02:14:05;;;;;;;5.47;4.97;;;;;;;-0.29;100.00;99213.09;4137166;28;20240;-47
2023/01/26 02:16:07;;;;;;;5.77;4.40;;;;;;;-0.34;100.00;99204.69;4135137;28;20322;-47
2023/01/26 02:18:10;;;;;;;4.33;3.90;;;;;;;-0.28;100.00;99207.53;4132470;28;20206;-47
2023/01/26 02:20:27;;;;;;;10.50;4.40;;;;;;;-0.32;100.00;99197.28;4135864;28;20209;-47
2023/01/26 02:23:00;;;;;;;5.50;5.10;;;;;;;-0.26;100.00;99199.31;4134275;28;20695;-47
2023/01/26 02:25:10;;;;;;;5.13;4.67;;;;;;;-0.31;100.00;99193.59;4133679;28;20348;-48
2023/01/26 02:27:11;;;;;;;5.10;4.43;;;;;;;-0.30;100.00;99203.34;4150202;28;20208;-47
2023/01/26 02:29:13;;;;;;;5.20;4.70;;;;;;;-0.24;100.00;99189.22;4136424;28;20213;-47
2023/01/26 02:31:15;;;;;;;5.50;5.00;;;;;;;-0.26;100.00;99191.25;4137483;28;20205;-48
2023/01/26 02:33:26;;;;;;;5.60;5.07;;;;;;;-0.25;100.00;99187.56;4136506;28;20638;-48
2023/01/26 02:35:27;;;;;;;4.60;4.20;;;;;;;-0.16;100.00;99187.41;4135208;28;20209;-47
2023/01/26 02:37:29;;;;;;;5.63;5.13;;;;;;;-0.18;100.00;99183.19;4134190;28;20768;-47
2023/01/26 02:39:43;;;;;;;5.30;4.90;;;;;;;-0.16;100.00;99186.56;4133590;28;20673;-47
2023/01/26 02:44:07;;;;;;;5.57;5.07;;;;;;;-0.24;100.00;99173.09;4135442;28;20313;-48
2023/01/26 02:46:09;;;;;;;4.97;4.57;;;;;;;-0.32;100.00;99186.53;4135963;28;20671;-47
2023/01/26 02:48:11;;;;;;;5.15;3.72;;;;;;;-0.25;100.00;99182.19;4120653;28;20312;-47
2023/01/26 02:50:14;;;;;;;4.93;4.50;;;;;;;-0.32;100.00;99175.78;4133724;28;20237;-47
2023/01/26 02:52:19;;;;;;;4.57;4.28;;;;;;;-0.27;100.00;99182.34;4150338;28;20205;-47
2023/01/26 02:56:41;;;;;;;4.80;4.37;;;;;;;-0.62;100.00;99179.09;4135805;28;20209;-48
2023/01/26 02:58:43;;;;;;;6.00;4.30;;;;;;;-0.76;100.00;99177.00;4136746;28;20607;-47
2023/01/26 03:00:44;;;;;;;4.13;3.83;;;;;;;-0.78;100.00;99179.03;4135733;28;20232;-47
2023/01/26 03:02:47;;;;;;;5.27;4.83;;;;;;;-0.73;100.00;99163.25;4132874;28;20817;-47
2023/01/26 03:04:48;;;;;;;5.87;5.20;;;;;;;-0.65;100.00;99158.75;4136137;28;20213;-48
2023/01/26 03:06:50;;;;;;;4.80;4.23;;;;;;;-0.57;100.00;99160.59;4138179;28;20956;-49
2023/01/26 03:08:52;;;;;;;4.17;3.83;;;;;;;-0.51;100.00;99149.19;4133950;28;20249;-47
2023/01/26 03:10:53;;;;;;;4.50;3.37;;;;;;;-0.45;100.00;99149.41;4121836;28;20233;-47
2023/01/26 03:12:55;;;;;;;3.37;3.10;;;;;;;-0.44;100.00;99147.53;4135154;28;20325;-47
2023/01/26 03:17:17;;;;;;;4.07;3.67;;;;;;;-0.35;100.00;99155.44;4152626;28;20273;-47
2023/01/26 03:28:40;;;;;;;4.27;3.80;;;;;;;-0.19;100.00;99143.88;4139917;28;20296;-47
2023/01/26 03:30:42;;;;;;;5.47;4.97;;;;;;;-0.31;100.00;99135.31;4137605;28;20293;-47
2023/01/26 03:32:44;;;;;;;3.77;3.47;;;;;;;-0.32;100.00;99138.16;4137462;28;20734;-47
2023/01/26 03:34:46;;;;;;;4.50;4.10;;;;;;;-0.11;100.00;99142.84;4138016;28;20217;-48
2023/01/26 03:36:48;;;;;;;3.63;3.33;;;;;;;-0.29;100.00;99140.53;4140961;28;20436;-48
2023/01/26 03:38:49;;;;;;;5.03;4.37;;;;;;;-0.25;100.00;99134.63;4137076;28;20236;-47
2023/01/26 03:57:29;;;;;;;2.80;2.60;;;;;;;-0.17;100.00;99123.88;4136596;28;20202;-48
2023/01/26 03:59:37;;;;;;;4.50;4.10;;;;;;;-0.21;100.00;99124.38;4141500;28;20585;-47
2023/01/26 04:01:41;;;;;;;4.20;3.65;;;;;;;-0.20;100.00;99124.19;4137646;28;20221;-47
2023/01/26 04:08:25;;;;;;;4.90;4.40;;;;;;;-0.20;100.00;99120.69;4138562;28;20210;-48
2023/01/26 04:10:27;;;;;;;4.25;3.70;;;;;;;-0.34;100.00;99118.66;4137366;28;20210;-48
2023/01/26 04:12:29;;;;;;;7.57;3.50;;;;;;;-0.26;100.00;99124.03;4120488;28;20750;-47
2023/01/26 04:21:33;;;;;;;3.17;2.97;;;;;;;-0.21;100.00;99108.25;4135051;28;20213;-48
2023/01/26 04:23:34;;;;;;;3.30;3.00;;;;;;;-0.16;100.00;99117.50;4135338;28;20237;-48
2023/01/26 04:25:39;;;;;;;3.87;3.57;;;;;;;-0.15;100.00;99112.97;4140741;28;20284;-47
2023/01/26 04:27:42;;;;;;;4.20;3.90;;;;;;;-0.20;100.00;99109.94;4135815;28;20720;-47
2023/01/26 04:29:43;;;;;;;7.53;3.08;;;;;;;-0.21;100.00;99101.00;4136781;28;20289;-47
2023/01/26 04:31:45;;;;;;;3.60;3.30;;;;;;;-0.22;100.00;99101.19;4119688;28;20206;-47
2023/01/26 04:33:47;;;;;;;4.15;3.45;;;;;;;-0.18;100.00;99087.25;4152735;28;20323;-47
2023/01/26 04:35:48;;;;;;;4.65;4.25;;;;;;;-0.18;100.00;99081.00;4137778;28;20300;-48
2023/01/26 04:37:50;;;;;;;3.83;3.42;;;;;;;-0.11;100.00;99089.06;4134714;28;20312;-47
2023/01/26 04:39:52;;;;;;;3.50;3.17;;;;;;;-0.27;100.00;99088.25;4137445;28;20289;-47
2023/01/26 04:41:54;;;;;;;3.97;3.57;;;;;;;-0.34;100.00;99086.41;4137992;28;20236;-47
2023/01/26 04:43:55;;;;;;;3.63;3.33;;;;;;;-0.45;100.00;99094.78;4138171;28;20319;-47
2023/01/26 04:46:05;;;;;;;4.23;3.83;;;;;;;-0.39;100.00;99088.75;4133163;28;20220;-47
2023/01/26 04:48:07;;;;;;;3.67;3.47;;;;;;;-0.37;100.00;99081.34;4133477;28;20240;-47
2023/01/26 04:50:09;;;;;;;4.80;3.73;;;;;;;-0.35;100.00;99076.66;4133925;28;20889;-47
2023/01/26 04:52:12;;;;;;;3.67;3.40;;;;;;;-0.34;100.00;99065.72;4138095;28;20213;-47
2023/01/26 04:54:14;;;;;;;4.03;3.67;;;;;;;-0.31;100.00;99075.31;4134004;28;20233;-47
2023/01/26 04:56:24;;;;;;;5.50;3.40;;;;;;;-0.30;100.00;99072.47;4136564;28;20710;-47
2023/01/26 04:58:26;;;;;;;4.67;4.37;;;;;;;-0.25;100.00;99066.56;4136012;28;20255;-47
2023/01/26 05:00:28;;;;;;;4.93;4.47;;;;;;;-0.21;100.00;99070.63;4137419;28;20711;-48
2023/01/26 05:02:30;;;;;;;3.60;3.33;;;;;;;-0.24;100.00;99068.25;4139015;28;20225;-48
2023/01/26 05:04:35;;;;;;;4.47;3.63;;;;;;;-0.26;100.00;99063.06;4135422;28;20899;-48
2023/01/26 05:06:37;;;;;;;3.65;3.35;;;;;;;-0.22;100.00;99058.19;4141178;28;20209;-48
2023/01/26 05:08:39;;;;;;;5.22;4.72;;;;;;;-0.20;100.00;99061.53;4140762;28;20218;-47
2023/01/26 05:10:41;;;;;;;5.27;4.57;;;;;;;-0.17;100.00;99066.56;4138368;28;20237;-49
2023/01/26 05:12:43;;;;;;;4.38;3.97;;;;;;;-0.16;100.00;99062.88;4138509;28;20197;-47
2023/01/26 05:14:45;;;;;;;4.73;4.37;;;;;;;-0.30;100.00;99058.16;4138935;28;20216;-47
2023/01/26 05:16:47;;;;;;;3.85;3.55;;;;;;;-0.19;100.00;99057.84;4139240;28;20249;-48
2023/01/26 05:18:48;;;;;;;3.70;3.40;;;;;;;-0.25;100.00;99061.19;4136626;28;20284;-47
2023/01/26 05:20:50;;;;;;;3.23;2.93;;;;;;;-0.26;100.00;99067.59;4136017;28;20248;-48
2023/01/26 05:22:52;;;;;;;3.43;3.17;;;;;;;-0.23;100.00;99065.41;4133692;28;20229;-47
2023/01/26 05:24:54;;;;;;;4.40;4.00;;;;;;;-0.27;100.00;99068.59;4135003;28;20217;-47
2023/01/26 05:27:19;;;;;;;4.30;3.95;;;;;;;-0.28;100.00;99065.06;4119083;28;20238;-47
2023/01/26 05:29:17;;;;;;;5.18;3.50;;;;;;;-0.16;100.00;99068.28;4134410;28;20218;-48
2023/01/26 05:31:19;;;;;;;6.15;4.72;;;;;;;-0.25;100.00;99063.88;4134476;28;20296;-47
2023/01/26 05:33:21;;;;;;;5.20;4.75;;;;;;;-0.14;100.00;99069.75;4134920;28;20233;-47
2023/01/26 05:35:23;;;;;;;4.87;4.33;;;;;;;-0.17;100.00;99061.19;4133968;28;20670;-47
2023/01/26 05:37:26;;;;;;;5.63;4.00;;;;;;;-0.22;100.00;99063.56;4149427;28;20212;-47
2023/01/26 05:39:28;;;;;;;4.57;4.18;;;;;;;-0.25;100.00;99063.88;4134420;28;20209;-47
2023/01/26 05:41:29;;;;;;;5.28;4.80;;;;;;;-0.24;100.00;99071.78;4135488;28;20236;-47
2023/01/26 05:43:31;;;;;;;4.65;4.25;;;;;;;-0.26;100.00;99068.44;4120850;28;20321;-48
2023/01/26 05:45:33;;;;;;;5.20;4.80;;;;;;;-0.16;100.00;99068.28;4145451;28;20209;-47
2023/01/26 05:47:38;;;;;;;3.80;3.50;;;;;;;-0.30;100.00;99066.22;4132860;28;20206;-47
2023/01/26 05:49:41;;;;;;;5.37;4.93;;;;;;;-0.20;100.00;99058.84;4133928;28;20209;-47
2023/01/26 05:51:43;;;;;;;4.10;3.70;;;;;;;-0.20;100.00;99070.41;4134958;28;20213;-48
2023/01/26 05:53:45;;;;;;;4.53;4.13;;;;;;;-0.23;100.00;99064.53;4137028;28;23364;-47
2023/01/26 05:55:47;;;;;;;4.40;3.00;;;;;;;-0.25;100.00;99067.44;4133336;28;20221;-47
2023/01/26 05:57:49;;;;;;;5.70;5.20;;;;;;;-0.27;100.00;99082.03;4134020;28;20213;-47
2023/01/26 05:59:51;;;;;;;4.60;4.23;;;;;;;-0.29;100.00;99068.75;4134168;28;20297;-47
2023/01/26 06:01:55;;;;;;;4.83;4.43;;;;;;;-0.23;100.00;99072.59;4136332;28;20218;-47
2023/01/26 06:03:57;;;;;;;7.10;5.97;;;;;;;-0.31;100.00;99065.41;4134481;28;20595;-48
2023/01/26 06:05:58;;;;;;;5.65;5.15;;;;;;;-0.21;100.00;99076.00;4131011;28;20202;-47
2023/01/26 06:08:00;;;;;;;5.78;4.80;;;;;;;-0.16;100.00;99079.03;4136920;28;20263;-49
2023/01/26 06:10:03;;;;;;;5.45;4.95;;;;;;;-0.25;100.00;99090.78;4133776;28;20259;-48
2023/01/26 06:12:06;;;;;;;4.87;4.37;;;;;;;-0.23;100.00;99078.84;4134950;28;22379;-47
2023/01/26 06:14:07;;;;;;;4.97;4.57;;;;;;;-0.25;100.00;99090.78;4147905;28;20738;-48
2023/01/26 06:16:09;;;;;;;2.97;2.67;;;;;;;-0.21;100.00;99086.75;4131035;28;20901;-47
2023/01/26 06:18:11;;;;;;;3.25;2.95;;;;;;;-0.23;100.00;99091.44;4136898;28;20256;-47
2023/01/26 06:20:13;;;;;;;2.45;2.25;;;;;;;-0.27;100.00;99092.78;4133331;28;20292;-47
2023/01/26 06:22:18;;;;;;;2.85;2.60;;;;;;;-0.32;100.00;99092.44;4136509;28;20229;-47
2023/01/26 06:24:21;;;;;;;2.27;2.07;;;;;;;-0.31;100.00;99091.44;4133675;28;20248;-47
2023/01/26 06:26:25;;;;;;;2.90;2.58;;;;;;;-0.24;100.00;99097.81;4127049;28;20247;-47
2023/01/26 06:28:32;;;;;;;2.30;2.00;;;;;;;-0.27;100.00;99098.16;4132032;28;20564;-47
2023/01/26 06:30:33;;;;;;;2.63;2.43;;;;;;;-0.24;100.00;99100.50;4139946;28;20209;-47
2023/01/26 06:32:36;;;;;;;3.30;3.00;;;;;;;-0.21;100.00;99102.88;4133365;28;20210;-47
2023/01/26 06:34:38;;;;;;;2.57;2.37;;;;;;;-0.33;100.00;99099.69;4131647;28;21512;-46
2023/01/26 06:36:40;;;;;;;2.47;2.27;;;;;;;-0.44;100.00;99097.31;4133866;28;20205;-48
2023/01/26 06:38:51;;;;;;;3.23;2.87;;;;;;;-0.38;100.00;99098.50;4133130;28;20264;-48
2023/01/26 06:41:04;;;;;;;2.53;2.33;;;;;;;-0.30;100.00;99098.50;4135374;28;20216;-47
2023/01/26 06:43:06;;;;;;;2.55;2.33;;;;;;;-0.31;100.00;99102.19;4134874;28;20883;-48
2023/01/26 06:45:19;;;;;;;2.63;2.45;;;;;;;-0.25;100.00;99101.53;4134105;28;20259;-47
2023/01/26 06:47:21;;;;;;;3.23;3.03;;;;;;;-0.36;100.00;99100.00;4134708;28;20240;-48
2023/01/26 06:49:23;;;;;;;3.17;2.87;;;;;;;-0.34;100.00;99097.16;4117647;28;20221;-47
2023/01/26 06:51:34;;;;;;;2.80;2.60;;;;;;;-0.37;100.00;99098.34;4151021;28;20212;-48
2023/01/26 06:53:42;;;;;;;3.58;3.28;;;;;;;-0.31;100.00;99096.81;4136759;28;20264;-47
2023/01/26 06:55:43;;;;;;;2.73;2.57;;;;;;;-0.36;100.00;99104.56;4140163;28;20216;-47
2023/01/26 06:57:45;;;;;;;3.43;3.23;;;;;;;-0.43;100.00;99098.13;4141712;28;20210;-48
2023/01/26 06:59:47;;;;;;;3.17;2.87;;;;;;;-0.43;100.00;99099.00;4139262;28;20261;-48
2023/01/26 07:01:50;;;;;;;2.23;2.13;;;;;;;-0.43;100.00;99103.53;4137815;28;20265;-47
2023/01/26 07:03:53;;;;;;;2.77;2.57;;;;;;;-0.47;100.00;99097.63;4139546;28;20233;-48
2023/01/26 07:05:55;;;;;;;2.63;2.43;;;;;;;-0.51;100.00;99106.19;4141346;28;20209;-48
2023/01/26 07:08:03;;;;;;;2.72;2.55;;;;;;;-0.56;100.00;99095.13;4139977;28;20210;-47
2023/01/26 07:10:06;;;;;;;3.07;2.87;;;;;;;-0.49;100.00;99101.53;4140059;28;21523;-48
2023/01/26 07:12:08;;;;;;;2.80;2.60;;;;;;;-0.44;100.00;99100.00;4139029;28;20916;-47
2023/01/26 07:14:10;;;;;;;3.40;2.60;;;;;;;-0.41;100.00;99101.53;4154009;28;20639;-47
2023/01/26 07:16:14;;;;;;;2.10;2.00;;;;;;;-0.51;100.00;99101.69;4138101;28;20308;-47
2023/01/26 07:18:16;;;;;;;2.23;2.07;;;;;;;-0.44;100.00;99104.53;4139560;28;20284;-47
2023/01/26 07:20:18;;;;;;;3.10;2.90;;;;;;;-0.70;100.00;99101.13;4135440;28;20676;-47
2023/01/26 07:22:19;;;;;;;2.73;2.53;;;;;;;-0.79;100.00;99112.88;4123185;28;20245;-49
2023/01/26 07:24:21;;;;;;;3.07;2.87;;;;;;;-0.63;100.00;99108.38;4150761;28;20240;-48
2023/01/26 07:26:23;;;;;;;2.53;2.33;;;;;;;-0.57;100.00;99114.94;4139227;28;20210;-48
2023/01/26 07:28:29;;;;;;;3.93;3.63;;;;;;;-0.63;100.00;99118.28;4138369;28;20272;-48
2023/01/26 07:30:32;;;;;;;3.03;2.83;;;;;;;-0.66;100.00;99113.25;4140010;28;20536;-49
2023/01/26 07:32:34;;;;;;;3.00;2.70;;;;;;;-0.51;100.00;99111.56;4126654;28;20198;-48
2023/01/26 07:34:36;;;;;;;2.50;2.30;;;;;;;-0.62;100.00;99119.97;4139792;28;20237;-48
2023/01/26 07:36:38;;;;;;;2.90;2.70;;;;;;;-0.65;100.00;99115.78;4124750;28;20214;-48
2023/01/26 07:38:41;;;;;;;2.87;2.67;;;;;;;-0.58;100.00;99116.78;4142800;28;20198;-48
2023/01/26 07:40:42;;;;;;;2.80;2.60;;;;;;;-0.67;100.00;99125.00;4128762;28;20207;-48
2023/01/26 07:42:50;;;;;;;3.43;3.23;;;;;;;-0.54;100.00;99130.75;4142587;28;20237;-47
2023/01/26 07:44:52;;;;;;;3.13;2.93;;;;;;;-0.57;100.00;99128.38;4143914;28;20296;-48
2023/01/26 07:46:54;;;;;;;2.97;2.77;;;;;;;-0.58;100.00;99132.06;4157228;28;20205;-48
2023/01/26 07:48:57;;;;;;;4.60;4.20;;;;;;;-0.61;100.00;99138.59;4157918;28;20205;-47
2023/01/26 07:51:00;;;;;;;4.37;3.47;;;;;;;-0.56;100.00;99133.56;4137673;28;20553;-48
2023/01/26 07:53:07;;;;;;;3.60;3.30;;;;;;;-0.59;100.00;99141.97;4139670;28;20230;-47
2023/01/26 07:55:10;;;;;;;5.93;3.80;;;;;;;-0.62;100.00;99141.47;4139345;28;20200;-47
2023/01/26 07:57:14;;;;;;;3.57;3.27;;;;;;;-0.59;100.00;99136.59;4138881;28;20210;-47
2023/01/26 07:59:16;;;;;;;3.37;3.17;;;;;;;-0.51;100.00;99135.75;4143967;28;20325;-47
2023/01/26 08:01:18;;;;;;;2.83;2.63;;;;;;;-0.73;100.00;99145.31;4123791;28;20270;-47
2023/01/26 08:03:23;;;;;;;3.47;3.20;;;;;;;-0.58;100.00;99148.19;4139723;28;20296;-48
2023/01/26 08:05:25;;;;;;;3.00;2.80;;;;;;;-0.57;100.00;99144.47;4135541;28;20213;-47
2023/01/26 08:07:28;;;;;;;3.60;3.33;;;;;;;-0.70;100.00;99154.84;4134162;28;20384;-47
2023/01/26 08:09:32;;;;;;;2.97;2.77;;;;;;;-0.86;100.00;99152.13;4125450;28;20214;-47
2023/01/26 08:11:39;;;;;;;3.33;3.13;;;;;;;-0.82;100.00;99159.69;4141893;28;20296;-47
2023/01/26 08:13:41;;;;;;;2.73;2.53;;;;;;;-0.80;100.00;99154.19;4153200;28;20391;-46
2023/01/26 08:15:43;;;;;;;3.30;3.00;;;;;;;-0.83;100.00;99159.84;4153631;28;20209;-47
2023/01/26 08:17:45;;;;;;;2.47;2.37;;;;;;;-0.76;100.00;99158.19;4142976;28;21023;-50
2023/01/26 08:19:47;;;;;;;3.03;2.77;;;;;;;-0.70;100.00;99161.09;4137801;28;20213;-47
2023/01/26 08:21:49;;;;;;;2.03;1.93;;;;;;;-0.83;100.00;99166.09;4141428;28;20200;-48
2023/01/26 08:23:51;;;;;;;2.83;2.60;;;;;;;-0.73;100.00;99160.56;4137810;28;20692;-47
2023/01/26 08:26:04;;;;;;;2.70;2.50;;;;;;;-0.77;100.00;99160.06;4139027;28;20240;-48
2023/01/26 08:28:06;;;;;;;3.13;2.83;;;;;;;-0.79;100.00;99161.22;4125147;28;20216;-47
2023/01/26 08:30:08;;;;;;;3.17;2.97;;;;;;;-0.86;100.00;99160.19;4138325;28;21245;-47
2023/01/26 08:32:11;;;;;;;2.30;2.20;;;;;;;-0.93;100.00;99164.53;4135463;28;20234;-47
2023/01/26 08:34:12;;;;;;;2.90;2.60;;;;;;;-0.88;100.00;99164.91;4136786;28;20225;-47
2023/01/26 08:36:14;;;;;;;2.87;2.67;;;;;;;-0.88;100.00;99162.22;4121521;28;20292;-47
2023/01/26 08:38:16;;;;;;;3.57;3.27;;;;;;;-0.89;100.00;99160.53;4129228;28;20238;-47
2023/01/26 08:40:18;;;;;;;2.60;2.40;;;;;;;-0.90;100.00;99164.19;4120618;28;20627;-48
2023/01/26 08:42:20;;;;;;;2.70;2.33;;;;;;;-0.92;100.00;99155.47;4133489;28;20210;-47
2023/01/26 08:44:23;;;;;;;2.30;2.20;;;;;;;-0.89;100.00;99152.47;4131567;28;20317;-48
2023/01/26 08:46:25;;;;;;;3.07;2.87;;;;;;;-0.86;100.00;99152.13;4133603;28;20301;-47
2023/01/26 08:48:28;;;;;;;3.10;2.90;;;;;;;-0.86;100.00;99158.38;4136083;28;20373;-47
2023/01/26 08:50:29;;;;;;;3.13;2.93;;;;;;;-0.80;100.00;99159.56;4136831;28;20618;-46
2023/01/26 08:52:31;;;;;;;2.77;2.57;;;;;;;-0.89;100.00;99161.34;4136579;28;20570;-48
2023/01/26 08:54:33;;;;;;;2.67;1.90;;;;;;;-0.94;100.00;99157.50;4121668;28;20433;-47
2023/01/26 08:56:35;;;;;;;2.20;2.00;;;;;;;-0.87;100.00;99171.94;4131814;28;20697;-47
2023/01/26 08:58:37;;;;;;;3.13;2.93;;;;;;;-0.74;100.00;99164.28;4133858;28;20622;-47
2023/01/26 09:00:39;;;;;;;2.40;2.20;;;;;;;-0.64;100.00;99170.31;4148551;28;20233;-47
2023/01/26 09:02:42;;;;;;;2.57;2.37;;;;;;;-0.72;100.00;99171.16;4134118;28;20659;-47
2023/01/26 09:04:44;;;;;;;3.60;3.03;;;;;;;-0.70;100.00;99170.97;4137567;28;20213;-47
2023/01/26 09:06:54;;;;;;;3.00;2.80;;;;;;;-0.75;100.00;99162.59;4152375;28;20255;-48
2023/01/26 09:08:59;;;;;;;5.30;3.17;;;;;;;-0.79;100.00;99171.97;4127296;28;20268;-47
2023/01/26 09:11:01;;;;;;;2.10;2.00;;;;;;;-0.80;100.00;99170.28;4137485;28;20205;-47
2023/01/26 09:13:03;;;;;;;2.20;2.07;;;;;;;-0.73;100.00;99179.38;4136971;28;20218;-47
2023/01/26 09:15:06;;;;;;;2.20;2.10;;;;;;;-0.74;100.00;99165.09;4123620;28;20304;-47
2023/01/26 09:17:08;;;;;;;2.97;2.77;;;;;;;-0.83;100.00;99181.34;4142626;28;20488;-47
2023/01/26 09:19:10;;;;;;;3.70;2.33;;;;;;;-0.89;100.00;99182.03;4138527;28;20596;-47
2023/01/26 09:21:12;;;;;;;2.20;2.10;;;;;;;-0.87;100.00;99185.38;4129299;23;20231;-46
2023/01/26 09:23:16;;;;;;;2.57;2.37;;;;;;;-0.81;100.00;99187.41;4091462;28;20293;-48
2023/01/26 09:25:18;;;;;;;2.77;2.57;;;;;;;-0.82;100.00;99183.06;4075161;29;20211;-48
2023/01/26 09:27:20;;;;;;;2.27;2.17;;;;;;;-0.77;100.00;99186.06;4095605;28;20585;-48
2023/01/26 09:29:24;;;;;;;3.03;2.70;;;;;;;-0.76;100.00;99185.91;4098034;28;20232;-47
2023/01/26 09:31:26;;;;;;;3.00;2.70;;;;;;;-0.76;100.00;99185.06;4094790;28;20298;-47
2023/01/26 09:33:28;;;;;;;3.33;3.07;;;;;;;-0.69;100.00;99183.44;4099582;28;20236;-47
2023/01/26 09:35:30;;;;;;;3.20;2.90;;;;;;;-0.64;100.00;99181.06;4078919;29;20223;-47
2023/01/26 09:37:32;;;;;;;3.07;2.87;;;;;;;-0.94;100.00;99178.97;4093122;28;20211;-47
2023/01/26 09:39:34;;;;;;;2.60;2.40;;;;;;;-0.94;100.00;99181.66;4076805;29;20216;-47
2023/01/26 09:42:03;;;;;;;2.53;2.43;;;;;;;-0.87;100.00;99170.09;4074200;29;21077;-47
2023/01/26 09:44:08;;;;;;;3.83;3.53;;;;;;;-0.72;100.00;99175.69;4076475;29;21773;-47
2023/01/26 09:46:19;;;;;;;3.60;3.40;;;;;;;-0.66;100.00;99183.09;4089266;28;20295;-47
2023/01/26 09:48:39;;;;;;;3.50;2.80;;;;;;;-0.90;100.00;99177.63;4076350;29;20690;-47
2023/01/26 09:50:46;;;;;;;3.90;3.60;;;;;;;-1.17;100.00;99173.31;4090000;29;20247;-47
2023/01/26 09:52:56;;;;;;;4.03;3.40;;;;;;;-1.03;100.00;99166.50;4074200;29;20242;-47
2023/01/26 09:55:00;;;;;;;2.90;2.60;;;;;;;-0.86;100.00;99181.69;4057678;29;20202;-47
2023/01/26 09:57:13;;;;;;;3.10;2.80;;;;;;;-0.88;100.00;99172.94;4058068;29;20264;-47
2023/01/26 09:59:37;;;;;;;4.40;4.03;;;;;;;-0.97;100.00;99173.91;4090602;28;20293;-46
2023/01/26 10:02:03;;;;;;;5.20;4.07;;;;;;;-0.76;100.00;99171.63;4092667;28;20388;-48
2023/01/26 10:04:31;;;;;;;2.80;2.60;;;;;;;-0.73;100.00;99172.19;4076916;29;20690;-47
2023/01/26 10:06:35;;;;;;;3.27;3.07;;;;;;;-0.62;100.00;99171.03;4091539;28;20221;-47
2023/01/26 10:08:38;;;;;;;3.27;2.97;;;;;;;-0.51;100.00;99176.06;4092085;29;20215;-47
2023/01/26 10:10:52;;;;;;;3.13;2.93;;;;;;;-0.54;100.00;99173.72;4092358;28;20574;-46
2023/01/26 10:12:54;;;;;;;3.10;2.90;;;;;;;-0.58;100.00;99175.06;4089928;28;20238;-47
2023/01/26 10:15:02;;;;;;;4.37;3.97;;;;;;;-0.51;100.00;99170.69;4077770;29;22057;-46
2023/01/26 10:17:05;;;;;;;4.63;3.73;;;;;;;-0.53;100.00;99167.34;4091166;28;20286;-46
2023/01/26 10:19:19;;;;;;;5.10;3.83;;;;;;;-0.52;100.00;99164.50;4089156;28;20259;-46
2023/01/26 10:21:23;;;;;;;7.97;4.07;;;;;;;-0.50;100.00;99177.75;4089554;28;20250;-46
2023/01/26 10:23:28;;;;;;;5.43;5.00;;;;;;;-0.59;100.00;99168.00;4058414;29;20236;-47